Time;durP1;ratioP1;P1;durP2;ratioP2;P2;SDS_P1;SDS_P2;PMS_P1;PMS_P2;Temp;Humidity;BMP_temperature;BMP_pressure;BME280_temperature;BME280_humidity;BME280_pressure;Samples;Min_cycle;Max_cycle;Signal;HPM_P1;HPM_P2
2023/12/01 00:01:21;;;;;;;30.37;14.63;;;;;;;;;;4914257;29;20058;-80
2023/12/01 00:03:48;;;;;;;24.00;12.85;;;;;;;;;;4906860;29;20275;-81
2023/12/01 00:06:13;;;;;;;26.88;13.88;;;;;;;;;;4906253;29;20441;-81
2023/12/01 00:08:38;;;;;;;29.10;13.63;;;;;;;;;;4914591;29;20067;-81
2023/12/01 00:11:04;;;;;;;29.55;13.32;;;;;;;;;;4907381;29;20267;-81
2023/12/01 00:13:29;;;;;;;23.23;11.85;;;;;;;;;;4906278;29;20029;-81
2023/12/01 00:15:55;;;;;;;26.50;13.53;;;;;;;;;;4914423;29;20175;-81
2023/12/01 00:18:20;;;;;;;24.13;12.90;;;;;;;;;;4915889;29;20414;-81
2023/12/01 00:20:45;;;;;;;22.92;12.18;;;;;;;;;;4915110;29;20491;-81
2023/12/01 00:23:11;;;;;;;29.17;14.18;;;;;;;;;;4922733;29;20024;-81
2023/12/01 00:25:36;;;;;;;24.63;13.65;;;;;;;;;;4915303;29;20461;-80
2023/12/01 00:28:01;;;;;;;22.35;12.63;;;;;;;;;;4927268;29;20076;-81
2023/12/01 00:30:29;;;;;;;28.33;14.37;;;;;;;;;;4901951;29;20039;-81
2023/12/01 00:32:55;;;;;;;25.33;12.93;;;;;;;;;;4907436;29;20302;-81
2023/12/01 00:35:20;;;;;;;28.77;13.40;;;;;;;;;;4905956;29;20541;-81
2023/12/01 00:37:45;;;;;;;26.87;13.70;;;;;;;;;;4915343;29;20047;-81
2023/12/01 00:40:10;;;;;;;27.27;13.33;;;;;;;;;;4915330;29;20301;-81
2023/12/01 00:42:36;;;;;;;29.52;14.85;;;;;;;;;;4908218;29;20277;-81
2023/12/01 00:45:02;;;;;;;25.25;13.32;;;;;;;;;;4913160;29;20020;-81
2023/12/01 00:47:27;;;;;;;25.63;13.98;;;;;;;;;;4917570;29;20568;-81
2023/12/01 00:49:52;;;;;;;30.63;14.73;;;;;;;;;;4915189;29;20032;-81
2023/12/01 00:52:17;;;;;;;27.20;14.03;;;;;;;;;;4911979;29;20107;-81
2023/12/01 00:54:43;;;;;;;29.08;14.73;;;;;;;;;;4924749;29;20279;-81
2023/12/01 00:57:08;;;;;;;28.60;14.43;;;;;;;;;;4907153;29;20024;-81
2023/12/01 00:59:33;;;;;;;33.53;15.77;;;;;;;;;;4932668;29;20676;-81
2023/12/01 01:01:58;;;;;;;29.77;13.80;;;;;;;;;;4910919;29;20296;-80
2023/12/01 01:04:23;;;;;;;27.33;15.33;;;;;;;;;;4918826;29;20032;-81
2023/12/01 01:06:49;;;;;;;26.42;14.65;;;;;;;;;;4911447;29;20279;-81
2023/12/01 01:09:14;;;;;;;30.17;15.97;;;;;;;;;;4909514;29;20032;-81
2023/12/01 01:11:39;;;;;;;28.93;15.57;;;;;;;;;;4913955;29;20275;-81
2023/12/01 01:14:04;;;;;;;26.93;14.07;;;;;;;;;;4915933;29;20259;-81
2023/12/01 01:16:29;;;;;;;27.90;14.87;;;;;;;;;;4915564;29;20025;-81
2023/12/01 01:18:55;;;;;;;26.52;13.95;;;;;;;;;;4917610;29;20274;-81
2023/12/01 01:21:20;;;;;;;25.53;14.20;;;;;;;;;;4918694;29;20040;-81
2023/12/01 01:23:45;;;;;;;26.13;14.97;;;;;;;;;;4917309;29;20270;-81
2023/12/01 01:26:12;;;;;;;24.67;14.37;;;;;;;;;;4902634;29;20267;-81
2023/12/01 01:28:37;;;;;;;29.25;15.43;;;;;;;;;;4918269;29;20306;-81
2023/12/01 01:31:03;;;;;;;27.43;15.77;;;;;;;;;;4918186;29;20058;-81
2023/12/01 01:33:28;;;;;;;25.23;14.95;;;;;;;;;;4911034;29;20307;-81
2023/12/01 01:35:54;;;;;;;27.13;15.75;;;;;;;;;;4929932;29;20466;-81
2023/12/01 01:38:19;;;;;;;29.17;15.00;;;;;;;;;;4907726;29;20372;-81
2023/12/01 01:40:44;;;;;;;26.58;15.20;;;;;;;;;;4916466;29;20076;-81
2023/12/01 01:43:18;;;;;;;25.80;15.20;;;;;;;;;;4918215;29;20020;-81
2023/12/01 01:45:43;;;;;;;30.75;15.52;;;;;;;;;;4908579;29;20274;-81
2023/12/01 01:48:08;;;;;;;31.63;16.30;;;;;;;;;;4928815;29;20389;-81
2023/12/01 01:50:34;;;;;;;25.13;15.20;;;;;;;;;;4898573;29;20017;-81
2023/12/01 01:53:00;;;;;;;29.23;15.00;;;;;;;;;;4907486;29;20278;-81
2023/12/01 01:55:25;;;;;;;27.17;15.68;;;;;;;;;;4913288;29;20016;-81
2023/12/01 01:57:52;;;;;;;32.83;15.82;;;;;;;;;;4898740;29;20048;-81
2023/12/01 02:00:18;;;;;;;26.77;15.30;;;;;;;;;;4906318;29;20500;-81
2023/12/01 02:02:46;;;;;;;32.40;15.55;;;;;;;;;;4912914;29;20028;-81
2023/12/01 02:05:14;;;;;;;28.70;15.50;;;;;;;;;;4916344;29;20046;-81
2023/12/01 02:07:41;;;;;;;25.15;15.30;;;;;;;;;;4913511;29;20028;-81
2023/12/01 02:10:07;;;;;;;27.95;15.75;;;;;;;;;;4914288;29;20385;-81
2023/12/01 02:12:32;;;;;;;27.10;15.80;;;;;;;;;;4917184;29;20027;-81
2023/12/01 02:14:57;;;;;;;29.93;15.20;;;;;;;;;;4916488;29;20020;-81
2023/12/01 02:17:22;;;;;;;27.47;15.33;;;;;;;;;;4909872;29;20290;-81
2023/12/01 02:19:51;;;;;;;30.50;17.13;;;;;;;;;;4908964;29;20361;-81
2023/12/01 02:22:16;;;;;;;25.35;14.98;;;;;;;;;;4926150;29;20283;-81
2023/12/01 02:24:41;;;;;;;30.23;15.93;;;;;;;;;;4914591;29;20024;-81
2023/12/01 02:27:06;;;;;;;25.60;15.07;;;;;;;;;;4917007;29;20393;-81
2023/12/01 02:29:32;;;;;;;27.75;14.63;;;;;;;;;;4917326;29;20370;-81
2023/12/01 02:31:58;;;;;;;24.77;15.03;;;;;;;;;;4912469;29;20024;-81
2023/12/01 02:34:23;;;;;;;28.13;14.07;;;;;;;;;;4907737;29;20275;-81
2023/12/01 02:36:48;;;;;;;30.45;15.60;;;;;;;;;;4916077;29;20481;-81
2023/12/01 02:39:13;;;;;;;25.08;14.57;;;;;;;;;;4914636;29;20027;-81
2023/12/01 02:41:39;;;;;;;25.43;15.07;;;;;;;;;;4916664;29;20075;-81
2023/12/01 02:44:04;;;;;;;22.20;12.85;;;;;;;;;;4917154;29;20393;-81
2023/12/01 02:46:29;;;;;;;24.58;15.23;;;;;;;;;;4909293;29;20040;-81
2023/12/01 02:48:54;;;;;;;26.70;13.77;;;;;;;;;;4914801;29;20020;-81
2023/12/01 02:51:20;;;;;;;27.92;14.70;;;;;;;;;;4931597;29;20270;-81
2023/12/01 02:53:45;;;;;;;25.42;14.32;;;;;;;;;;4917022;29;20393;-81
2023/12/01 02:56:11;;;;;;;27.92;14.55;;;;;;;;;;4905955;29;20548;-81
2023/12/01 02:58:36;;;;;;;27.70;15.10;;;;;;;;;;4913761;29;20028;-81
2023/12/01 03:01:03;;;;;;;26.43;14.13;;;;;;;;;;4915038;29;20028;-80
2023/12/01 03:03:28;;;;;;;27.90;13.80;;;;;;;;;;4916786;29;20362;-81
2023/12/01 03:05:53;;;;;;;27.02;14.63;;;;;;;;;;4914812;29;20092;-81
2023/12/01 03:08:18;;;;;;;29.10;16.00;;;;;;;;;;4915095;29;20035;-81
2023/12/01 03:10:44;;;;;;;29.67;16.63;;;;;;;;;;4915869;29;20278;-81
2023/12/01 03:13:09;;;;;;;25.47;14.53;;;;;;;;;;4913897;29;20275;-81
2023/12/01 03:15:34;;;;;;;28.35;15.50;;;;;;;;;;4911287;29;20282;-81
2023/12/01 03:17:59;;;;;;;24.95;14.98;;;;;;;;;;4914112;29;20539;-80
2023/12/01 03:20:27;;;;;;;29.83;15.35;;;;;;;;;;4912058;29;20035;-81
2023/12/01 03:22:53;;;;;;;28.27;16.02;;;;;;;;;;4910904;29;20032;-81
2023/12/01 03:25:18;;;;;;;26.10;15.25;;;;;;;;;;4929210;29;20445;-81
2023/12/01 03:27:44;;;;;;;27.67;15.55;;;;;;;;;;4905707;29;20052;-81
2023/12/01 03:30:13;;;;;;;24.52;14.73;;;;;;;;;;4913104;29;20039;-81
2023/12/01 03:32:50;;;;;;;32.28;16.20;;;;;;;;;;4907511;29;20044;-81
2023/12/01 03:35:16;;;;;;;34.13;15.70;;;;;;;;;;4914952;29;20437;-81
2023/12/01 03:37:42;;;;;;;27.10;15.00;;;;;;;;;;4927850;29;20115;-81
2023/12/01 03:40:08;;;;;;;29.20;15.55;;;;;;;;;;4904528;29;20156;-81
2023/12/01 03:42:33;;;;;;;30.23;14.85;;;;;;;;;;4912930;29;20067;-81
2023/12/01 03:44:59;;;;;;;31.52;15.93;;;;;;;;;;4930472;29;20067;-81
2023/12/01 03:47:24;;;;;;;27.60;15.00;;;;;;;;;;4915821;29;20093;-81
2023/12/01 03:49:49;;;;;;;27.33;16.13;;;;;;;;;;4914979;29;20338;-81
2023/12/01 03:52:14;;;;;;;24.73;14.50;;;;;;;;;;4908828;29;20814;-81
2023/12/01 03:54:40;;;;;;;28.70;16.08;;;;;;;;;;4916015;29;20627;-81
2023/12/01 03:57:05;;;;;;;29.40;16.33;;;;;;;;;;4913285;29;20039;-81
2023/12/01 03:59:30;;;;;;;27.77;15.83;;;;;;;;;;4916047;29;20281;-81
2023/12/01 04:01:55;;;;;;;31.00;15.93;;;;;;;;;;4916055;29;20318;-81
2023/12/01 04:04:20;;;;;;;37.23;17.10;;;;;;;;;;4914992;29;20289;-81
2023/12/01 04:06:46;;;;;;;28.37;16.13;;;;;;;;;;4914526;29;20635;-81
2023/12/01 04:09:11;;;;;;;31.97;15.70;;;;;;;;;;4914293;29;20278;-81
2023/12/01 04:11:37;;;;;;;26.10;15.07;;;;;;;;;;4914470;29;20069;-81
2023/12/01 04:14:03;;;;;;;36.33;17.08;;;;;;;;;;4914701;29;20278;-81
2023/12/01 04:16:29;;;;;;;32.83;18.02;;;;;;;;;;4917287;29;20552;-81
2023/12/01 04:18:55;;;;;;;28.38;17.10;;;;;;;;;;4913785;29;20153;-81
2023/12/01 04:21:20;;;;;;;27.65;15.77;;;;;;;;;;4930574;29;20068;-81
2023/12/01 04:23:45;;;;;;;28.73;15.13;;;;;;;;;;4914558;29;20503;-81
2023/12/01 04:26:12;;;;;;;28.23;16.43;;;;;;;;;;4929571;29;20028;-81
2023/12/01 04:28:40;;;;;;;28.80;15.95;;;;;;;;;;4908843;29;20775;-81
2023/12/01 04:31:05;;;;;;;33.80;16.85;;;;;;;;;;4915233;29;20074;-81
2023/12/01 04:33:31;;;;;;;29.90;16.00;;;;;;;;;;4905035;29;20020;-81
2023/12/01 04:35:56;;;;;;;26.55;14.02;;;;;;;;;;4902233;29;20035;-81
2023/12/01 04:38:21;;;;;;;31.40;18.07;;;;;;;;;;4919332;29;20028;-81
2023/12/01 04:40:47;;;;;;;34.10;17.25;;;;;;;;;;4917879;29;20267;-81
2023/12/01 04:43:12;;;;;;;28.27;16.23;;;;;;;;;;4909925;29;20036;-80
2023/12/01 04:45:37;;;;;;;28.63;15.77;;;;;;;;;;4911486;29;20266;-81
2023/12/01 04:48:02;;;;;;;29.55;16.15;;;;;;;;;;4919240;29;20472;-81
2023/12/01 04:50:29;;;;;;;32.83;17.75;;;;;;;;;;4916395;29;20032;-81
2023/12/01 04:52:56;;;;;;;28.25;15.75;;;;;;;;;;4913960;29;20468;-81
2023/12/01 04:55:25;;;;;;;30.85;16.17;;;;;;;;;;4916940;29;20099;-81
2023/12/01 04:57:50;;;;;;;33.58;16.70;;;;;;;;;;4915042;29;20099;-81
2023/12/01 05:00:20;;;;;;;29.08;15.70;;;;;;;;;;4908105;29;20502;-81
2023/12/01 05:02:50;;;;;;;30.50;15.73;;;;;;;;;;4909594;29;20032;-81
2023/12/01 05:05:15;;;;;;;28.38;16.17;;;;;;;;;;4908285;29;20024;-81
2023/12/01 05:07:41;;;;;;;29.90;15.60;;;;;;;;;;4918341;29;20035;-81
2023/12/01 05:10:08;;;;;;;29.95;15.95;;;;;;;;;;4915832;29;20484;-81
2023/12/01 05:12:37;;;;;;;37.60;17.25;;;;;;;;;;4904368;29;20031;-82
2023/12/01 05:15:02;;;;;;;32.55;16.35;;;;;;;;;;4930484;29;20032;-81
2023/12/01 05:17:27;;;;;;;37.53;17.70;;;;;;;;;;4918852;29;20035;-81
2023/12/01 05:19:53;;;;;;;31.58;16.33;;;;;;;;;;4909846;29;20036;-81
2023/12/01 05:22:18;;;;;;;33.90;17.37;;;;;;;;;;4932669;29;20028;-82
2023/12/01 05:24:43;;;;;;;27.37;15.40;;;;;;;;;;4913098;29;20279;-81
2023/12/01 05:27:08;;;;;;;29.07;15.57;;;;;;;;;;4914597;29;20297;-82
2023/12/01 05:29:35;;;;;;;33.38;16.10;;;;;;;;;;4910016;29;20283;-81
2023/12/01 05:32:01;;;;;;;29.95;15.75;;;;;;;;;;4918454;29;20028;-82
2023/12/01 05:34:26;;;;;;;33.78;16.25;;;;;;;;;;4902231;29;20162;-83
2023/12/01 05:36:51;;;;;;;32.60;15.83;;;;;;;;;;4907415;29;20051;-82
2023/12/01 05:39:17;;;;;;;30.97;15.40;;;;;;;;;;4908479;29;20281;-84
2023/12/01 05:41:43;;;;;;;30.87;15.93;;;;;;;;;;4916802;29;20640;-83
2023/12/01 05:44:08;;;;;;;32.92;15.75;;;;;;;;;;4933567;29;20291;-83
2023/12/01 05:46:33;;;;;;;36.47;16.13;;;;;;;;;;4932796;29;20497;-83
2023/12/01 05:49:02;;;;;;;29.57;15.43;;;;;;;;;;4918122;29;20103;-83
2023/12/01 05:51:27;;;;;;;28.70;13.95;;;;;;;;;;4933671;29;20283;-83
2023/12/01 05:53:53;;;;;;;24.23;13.07;;;;;;;;;;4918986;29;20464;-83
2023/12/01 05:56:18;;;;;;;29.05;14.68;;;;;;;;;;4933550;29;20071;-83
2023/12/01 05:58:43;;;;;;;29.00;15.03;;;;;;;;;;4918909;29;20027;-83
2023/12/01 06:01:09;;;;;;;29.88;14.80;;;;;;;;;;4918794;29;20267;-83
2023/12/01 06:03:34;;;;;;;32.10;15.00;;;;;;;;;;4933374;29;20026;-83
2023/12/01 06:05:59;;;;;;;27.42;13.77;;;;;;;;;;4933299;29;20028;-83
2023/12/01 06:08:24;;;;;;;28.33;13.90;;;;;;;;;;4917425;29;20032;-83
2023/12/01 06:10:50;;;;;;;25.07;13.00;;;;;;;;;;4918857;29;20031;-83
2023/12/01 06:13:16;;;;;;;28.65;15.30;;;;;;;;;;4918693;29;20273;-83
2023/12/01 06:15:42;;;;;;;29.95;14.80;;;;;;;;;;4918735;29;20401;-83
2023/12/01 06:18:07;;;;;;;28.17;14.68;;;;;;;;;;4918625;29;20020;-83
2023/12/01 06:20:34;;;;;;;27.35;13.20;;;;;;;;;;4933204;29;20021;-84
2023/12/01 06:23:00;;;;;;;30.20;14.98;;;;;;;;;;4933315;29;20035;-83
2023/12/01 06:25:29;;;;;;;26.55;14.43;;;;;;;;;;4933020;29;20032;-83
2023/12/01 06:27:58;;;;;;;28.80;14.50;;;;;;;;;;4932856;29;20390;-83
2023/12/01 06:30:24;;;;;;;30.45;13.95;;;;;;;;;;4918258;29;20023;-83
2023/12/01 06:32:50;;;;;;;30.40;14.57;;;;;;;;;;4932975;29;20020;-83
2023/12/01 06:35:16;;;;;;;29.73;13.48;;;;;;;;;;4918390;29;20366;-83
2023/12/01 06:37:43;;;;;;;33.72;14.35;;;;;;;;;;4932237;29;20032;-83
2023/12/01 06:40:12;;;;;;;28.42;14.65;;;;;;;;;;4918551;29;20064;-83
2023/12/01 06:42:44;;;;;;;26.73;14.32;;;;;;;;;;4918159;29;20028;-83
2023/12/01 06:45:10;;;;;;;35.07;13.80;;;;;;;;;;4932861;29;20024;-83
2023/12/01 06:47:35;;;;;;;25.77;13.02;;;;;;;;;;4932574;29;20764;-83
2023/12/01 06:50:01;;;;;;;27.35;13.98;;;;;;;;;;4918023;29;20103;-83
2023/12/01 06:52:26;;;;;;;25.53;12.70;;;;;;;;;;4918036;29;20099;-83
2023/12/01 06:54:52;;;;;;;29.38;13.50;;;;;;;;;;4932546;29;20258;-84
2023/12/01 06:57:17;;;;;;;25.67;13.50;;;;;;;;;;4932562;29;20020;-83
2023/12/01 06:59:42;;;;;;;24.57;12.37;;;;;;;;;;4932567;29;20255;-83
2023/12/01 07:02:07;;;;;;;33.87;15.27;;;;;;;;;;4932484;29;20259;-83
2023/12/01 07:04:32;;;;;;;30.10;14.83;;;;;;;;;;4917819;29;20684;-83
2023/12/01 07:07:00;;;;;;;32.23;14.80;;;;;;;;;;4932271;29;20649;-83
2023/12/01 07:09:26;;;;;;;29.58;14.40;;;;;;;;;;4932398;29;20071;-83
2023/12/01 07:11:52;;;;;;;25.85;13.75;;;;;;;;;;4917686;29;20028;-84
2023/12/01 07:14:18;;;;;;;28.48;13.48;;;;;;;;;;4917634;29;20480;-83
2023/12/01 07:16:43;;;;;;;33.92;16.02;;;;;;;;;;4917638;29;20024;-83
2023/12/01 07:19:10;;;;;;;30.05;14.75;;;;;;;;;;4932172;29;20035;-83
2023/12/01 07:21:35;;;;;;;28.73;14.57;;;;;;;;;;4916221;29;20036;-83
2023/12/01 07:24:06;;;;;;;29.83;13.85;;;;;;;;;;4917497;29;20039;-83
2023/12/01 07:26:33;;;;;;;28.50;13.55;;;;;;;;;;4917272;29;20473;-83
2023/12/01 07:28:58;;;;;;;28.80;14.38;;;;;;;;;;4916188;29;20389;-83
2023/12/01 07:31:24;;;;;;;28.70;13.23;;;;;;;;;;4917501;29;20020;-83
2023/12/01 07:33:49;;;;;;;29.77;15.25;;;;;;;;;;4916123;29;20492;-84
2023/12/01 07:36:14;;;;;;;27.17;13.30;;;;;;;;;;4917301;29;20023;-83
2023/12/01 07:38:39;;;;;;;25.63;13.40;;;;;;;;;;4931891;29;20254;-83
2023/12/01 07:41:07;;;;;;;29.37;13.60;;;;;;;;;;4931891;29;20328;-83
2023/12/01 07:43:32;;;;;;;29.98;13.48;;;;;;;;;;4917248;29;20286;-83
2023/12/01 07:45:58;;;;;;;27.48;13.35;;;;;;;;;;4931834;29;20055;-83
2023/12/01 07:48:23;;;;;;;29.93;14.57;;;;;;;;;;4917186;29;20030;-83
2023/12/01 07:50:48;;;;;;;27.45;13.88;;;;;;;;;;4915909;29;20259;-83
2023/12/01 07:53:13;;;;;;;24.67;11.70;;;;;;;;;;4931697;29;20527;-83
2023/12/01 07:55:40;;;;;;;22.07;12.27;;;;;;;;;;4931719;29;20756;-83
2023/12/01 07:58:05;;;;;;;26.05;13.68;;;;;;;;;;4917070;29;20251;-83
2023/12/01 08:00:31;;;;;;;26.00;12.53;;;;;;;;;;4917134;29;20028;-83
2023/12/01 08:02:56;;;;;;;26.20;12.18;;;;;;;;;;4917042;29;20279;-82
2023/12/01 08:05:22;;;;;;;30.00;13.03;;;;;;;;;;4917154;29;20028;-83
2023/12/01 08:07:51;;;;;;;27.00;12.32;;;;;;;;;;4916914;29;20277;-83
2023/12/01 08:10:17;;;;;;;22.50;11.55;;;;;;;;;;4916988;29;20023;-83
2023/12/01 08:12:43;;;;;;;26.83;13.40;;;;;;;;;;4915682;29;20028;-83
2023/12/01 08:15:08;;;;;;;27.88;12.90;;;;;;;;;;4916971;29;20094;-83
2023/12/01 08:17:33;;;;;;;26.95;12.27;;;;;;;;;;4931542;29;20124;-83
2023/12/01 08:19:59;;;;;;;25.08;12.52;;;;;;;;;;4931467;29;20068;-83
2023/12/01 08:22:24;;;;;;;26.57;12.87;;;;;;;;;;4915542;29;20020;-83
2023/12/01 08:24:50;;;;;;;29.23;14.13;;;;;;;;;;4931442;29;20277;-83
2023/12/01 08:27:15;;;;;;;34.92;13.48;;;;;;;;;;4931178;29;20734;-83
2023/12/01 08:29:40;;;;;;;28.10;13.82;;;;;;;;;;4916909;29;20051;-83
2023/12/01 08:32:06;;;;;;;27.48;14.20;;;;;;;;;;4931341;29;20051;-83
2023/12/01 08:34:31;;;;;;;27.63;13.37;;;;;;;;;;4916755;29;20032;-83
2023/12/01 08:36:56;;;;;;;28.07;11.73;;;;;;;;;;4931245;29;20251;-83
2023/12/01 08:39:21;;;;;;;21.20;10.67;;;;;;;;;;4916707;29;20247;-83
2023/12/01 08:41:47;;;;;;;25.23;12.40;;;;;;;;;;4916675;29;20485;-83
2023/12/01 08:44:12;;;;;;;23.45;11.10;;;;;;;;;;4916716;29;20749;-83
2023/12/01 08:46:38;;;;;;;24.55;12.35;;;;;;;;;;4916624;29;20051;-83
2023/12/01 08:49:03;;;;;;;25.60;11.82;;;;;;;;;;4916686;29;20039;-83
2023/12/01 08:51:28;;;;;;;21.90;10.38;;;;;;;;;;4931152;29;20035;-83
2023/12/01 08:53:54;;;;;;;18.43;9.90;;;;;;;;;;4931171;29;20024;-83
2023/12/01 08:56:20;;;;;;;20.33;9.65;;;;;;;;;;4916603;29;20727;-83
2023/12/01 08:58:45;;;;;;;19.75;10.02;;;;;;;;;;4916514;29;20024;-83
2023/12/01 09:01:10;;;;;;;26.15;11.27;;;;;;;;;;4917683;29;20071;-83
2023/12/01 09:03:36;;;;;;;27.53;10.90;;;;;;;;;;4919971;29;20020;-83
2023/12/01 09:06:04;;;;;;;21.15;11.68;;;;;;;;;;4919930;29;20253;-83
2023/12/01 09:08:29;;;;;;;25.65;11.88;;;;;;;;;;4934410;29;20028;-83
2023/12/01 09:10:54;;;;;;;22.70;11.30;;;;;;;;;;4934464;29;20021;-83
2023/12/01 09:13:20;;;;;;;21.85;10.57;;;;;;;;;;4919904;29;20261;-83
2023/12/01 09:15:45;;;;;;;22.65;10.77;;;;;;;;;;4919812;29;20028;-83
2023/12/01 09:18:10;;;;;;;20.03;9.80;;;;;;;;;;4919821;29;20024;-83
2023/12/01 09:20:35;;;;;;;19.30;10.00;;;;;;;;;;4918459;29;20318;-83
2023/12/01 09:23:01;;;;;;;19.93;8.90;;;;;;;;;;4919653;29;20392;-83
2023/12/01 09:25:26;;;;;;;23.98;10.02;;;;;;;;;;4934128;29;20265;-82
2023/12/01 09:27:51;;;;;;;19.58;9.30;;;;;;;;;;4919479;29;20056;-83
2023/12/01 09:30:16;;;;;;;18.27;9.73;;;;;;;;;;4919574;29;20023;-83
2023/12/01 09:32:43;;;;;;;21.70;10.38;;;;;;;;;;4918300;29;20055;-83
2023/12/01 09:35:08;;;;;;;19.75;10.23;;;;;;;;;;4919510;29;20448;-83
2023/12/01 09:37:33;;;;;;;21.20;11.23;;;;;;;;;;4933935;29;20066;-83
2023/12/01 09:39:58;;;;;;;18.38;9.70;;;;;;;;;;4919337;29;20338;-83
2023/12/01 09:42:24;;;;;;;23.65;10.43;;;;;;;;;;4919367;29;20034;-83
2023/12/01 09:44:52;;;;;;;18.65;8.73;;;;;;;;;;4919271;29;20028;-83
2023/12/01 09:47:19;;;;;;;18.27;8.93;;;;;;;;;;4919178;29;20028;-83
2023/12/01 09:49:45;;;;;;;17.08;9.07;;;;;;;;;;4919208;29;20421;-82
2023/12/01 09:52:11;;;;;;;19.33;9.27;;;;;;;;;;4917946;29;20523;-83
2023/12/01 09:54:36;;;;;;;15.20;8.45;;;;;;;;;;4917815;29;20087;-83
2023/12/01 09:57:03;;;;;;;14.85;7.95;;;;;;;;;;4917782;29;20024;-83
2023/12/01 09:59:29;;;;;;;13.05;7.15;;;;;;;;;;4919085;29;20028;-83
2023/12/01 10:01:54;;;;;;;16.67;8.45;;;;;;;;;;4918975;29;20032;-83
2023/12/01 10:04:19;;;;;;;12.70;7.63;;;;;;;;;;4917692;29;20389;-83
2023/12/01 10:06:45;;;;;;;19.07;9.33;;;;;;;;;;4918822;29;20639;-83
2023/12/01 10:09:12;;;;;;;20.48;10.00;;;;;;;;;;4933370;29;20250;-83
2023/12/01 10:11:38;;;;;;;21.13;10.80;;;;;;;;;;4918711;29;20063;-83
2023/12/01 10:14:06;;;;;;;21.80;10.63;;;;;;;;;;4932446;29;20114;-83
2023/12/01 10:16:36;;;;;;;19.92;10.15;;;;;;;;;;4933340;29;20052;-83
2023/12/01 10:19:04;;;;;;;20.15;10.32;;;;;;;;;;4918840;29;20028;-83
2023/12/01 10:21:55;;;;;;;17.52;9.43;;;;;;;;;;4918692;29;20028;-82
2023/12/01 10:24:21;;;;;;;16.85;8.75;;;;;;;;;;4915377;29;20032;-83
2023/12/01 10:26:47;;;;;;;17.65;9.88;;;;;;;;;;4917065;29;20132;-83
2023/12/01 10:29:22;;;;;;;17.98;8.57;;;;;;;;;;4918495;29;20478;-83
2023/12/01 10:31:48;;;;;;;20.17;10.45;;;;;;;;;;4918417;29;20030;-83
2023/12/01 10:34:13;;;;;;;18.15;9.98;;;;;;;;;;4918370;29;20020;-83
2023/12/01 10:36:38;;;;;;;17.38;8.75;;;;;;;;;;4932989;29;20030;-83
2023/12/01 10:39:03;;;;;;;19.80;9.73;;;;;;;;;;4918323;29;20024;-83
2023/12/01 10:41:29;;;;;;;18.47;10.00;;;;;;;;;;4917010;29;20263;-83
2023/12/01 10:43:54;;;;;;;14.05;8.55;;;;;;;;;;4932810;29;20314;-83
2023/12/01 10:46:21;;;;;;;20.35;9.20;;;;;;;;;;4918117;29;20022;-83
2023/12/01 10:48:47;;;;;;;20.02;10.23;;;;;;;;;;4918118;29;20025;-83
2023/12/01 10:51:12;;;;;;;19.33;10.52;;;;;;;;;;4918101;29;20024;-83
2023/12/01 10:53:40;;;;;;;19.67;10.77;;;;;;;;;;4916843;29;20023;-83
2023/12/01 10:56:10;;;;;;;18.83;9.93;;;;;;;;;;4918035;29;20024;-83
2023/12/01 10:58:36;;;;;;;19.40;10.35;;;;;;;;;;4917901;29;20095;-83
2023/12/01 11:01:02;;;;;;;18.58;10.95;;;;;;;;;;4917939;29;20023;-83
2023/12/01 11:03:29;;;;;;;17.42;9.43;;;;;;;;;;4917848;29;20048;-83
2023/12/01 11:05:56;;;;;;;19.70;10.75;;;;;;;;;;4916625;29;20028;-83
2023/12/01 11:08:41;;;;;;;20.30;10.40;;;;;;;;;;4932321;29;20123;-83
2023/12/01 11:11:16;;;;;;;18.05;10.35;;;;;;;;;;4932273;29;20032;-83
2023/12/01 11:13:41;;;;;;;20.98;11.68;;;;;;;;;;4917732;29;20499;-83
2023/12/01 11:16:07;;;;;;;22.63;10.60;;;;;;;;;;4932215;29;20114;-83
2023/12/01 11:18:32;;;;;;;18.95;11.55;;;;;;;;;;4917751;29;20032;-83
2023/12/01 11:20:58;;;;;;;17.90;10.43;;;;;;;;;;4916308;29;20022;-82
2023/12/01 11:23:24;;;;;;;19.67;11.18;;;;;;;;;;4931760;29;20270;-83
2023/12/01 11:25:55;;;;;;;21.08;11.82;;;;;;;;;;4917543;29;20507;-83
2023/12/01 11:28:27;;;;;;;19.40;9.43;;;;;;;;;;4931792;29;20055;-83
2023/12/01 11:30:52;;;;;;;;;;;;;;;;;;4932441;29;20036;-83
2023/12/01 11:33:29;;;;;;;15.10;9.45;;;;;;;;;;4932006;29;19911;-83
2023/12/01 11:36:13;;;;;;;20.73;10.18;;;;;;;;;;4916141;29;20396;-83
2023/12/01 11:38:57;;;;;;;17.08;9.82;;;;;;;;;;4917257;29;20075;-83
2023/12/01 11:41:22;;;;;;;20.30;10.77;;;;;;;;;;4931905;29;20027;-83
2023/12/01 11:44:01;;;;;;;15.88;9.52;;;;;;;;;;4917301;29;20103;-83
2023/12/01 11:46:26;;;;;;;20.67;11.10;;;;;;;;;;4915909;29;20024;-82
2023/12/01 11:48:51;;;;;;;20.00;9.68;;;;;;;;;;4931823;29;20126;-83
2023/12/01 11:51:17;;;;;;;18.70;9.75;;;;;;;;;;4928132;29;20023;-83
2023/12/01 11:53:44;;;;;;;21.50;10.40;;;;;;;;;;4915395;29;20028;-84
2023/12/01 11:56:09;;;;;;;19.13;9.98;;;;;;;;;;4917144;29;20293;-83
2023/12/01 11:58:35;;;;;;;18.20;10.73;;;;;;;;;;4916606;29;20044;-82
2023/12/01 12:01:00;;;;;;;21.93;10.30;;;;;;;;;;4916808;29;20023;-83
2023/12/01 12:03:25;;;;;;;21.10;11.30;;;;;;;;;;4917031;29;20262;-83
2023/12/01 12:05:52;;;;;;;24.55;11.73;;;;;;;;;;4915832;29;20075;-83
2023/12/01 12:08:17;;;;;;;20.38;10.75;;;;;;;;;;4915641;29;20492;-83
2023/12/01 12:10:42;;;;;;;20.43;10.57;;;;;;;;;;4915780;29;20035;-82
2023/12/01 12:13:10;;;;;;;20.57;11.07;;;;;;;;;;4916998;29;20249;-83
2023/12/01 12:15:37;;;;;;;23.52;11.38;;;;;;;;;;4915713;29;20309;-83
2023/12/01 12:18:02;;;;;;;23.60;11.93;;;;;;;;;;4913695;29;20025;-83
2023/12/01 12:20:28;;;;;;;21.67;11.65;;;;;;;;;;4907802;29;20029;-83
2023/12/01 12:22:53;;;;;;;20.73;11.82;;;;;;;;;;4915696;29;20050;-83
2023/12/01 12:25:18;;;;;;;18.10;10.57;;;;;;;;;;4930376;29;20161;-83
2023/12/01 12:27:44;;;;;;;22.80;11.87;;;;;;;;;;4911669;29;20052;-83
2023/12/01 12:30:10;;;;;;;17.38;10.20;;;;;;;;;;4904100;29;20691;-83
2023/12/01 12:32:36;;;;;;;19.10;10.75;;;;;;;;;;4912212;29;20108;-83
2023/12/01 12:35:01;;;;;;;19.35;9.45;;;;;;;;;;4899775;29;20028;-83
2023/12/01 12:37:26;;;;;;;18.10;10.82;;;;;;;;;;4917190;29;20112;-82
2023/12/01 12:39:51;;;;;;;19.13;10.07;;;;;;;;;;4915173;29;20028;-83
2023/12/01 12:42:17;;;;;;;16.10;10.07;;;;;;;;;;4919610;29;20067;-83
2023/12/01 12:44:45;;;;;;;18.02;10.18;;;;;;;;;;4910381;29;20323;-83
2023/12/01 12:47:11;;;;;;;18.90;10.77;;;;;;;;;;4910838;29;20028;-83
2023/12/01 12:49:37;;;;;;;18.27;10.80;;;;;;;;;;4916683;29;20492;-83
2023/12/01 12:52:03;;;;;;;17.50;10.13;;;;;;;;;;4912776;29;20107;-81
2023/12/01 12:54:28;;;;;;;19.63;11.15;;;;;;;;;;4917354;29;20328;-83
2023/12/01 12:56:54;;;;;;;20.85;10.88;;;;;;;;;;4918092;29;20028;-83
2023/12/01 12:59:19;;;;;;;17.07;9.97;;;;;;;;;;4918299;29;20059;-82
2023/12/01 13:01:44;;;;;;;20.63;11.68;;;;;;;;;;4918458;29;20294;-83
2023/12/01 13:04:09;;;;;;;19.08;10.88;;;;;;;;;;4917622;29;20024;-81
2023/12/01 13:06:35;;;;;;;18.77;11.27;;;;;;;;;;4909998;29;20025;-82
2023/12/01 13:09:00;;;;;;;17.88;9.77;;;;;;;;;;4914142;29;20275;-81
2023/12/01 13:11:27;;;;;;;19.70;10.27;;;;;;;;;;4899470;29;20111;-82
2023/12/01 13:13:53;;;;;;;19.52;11.55;;;;;;;;;;4899964;29;20512;-81
2023/12/01 13:16:18;;;;;;;14.63;9.43;;;;;;;;;;4914825;29;20497;-82
2023/12/01 13:18:45;;;;;;;19.20;10.53;;;;;;;;;;4907133;29;20104;-82
2023/12/01 13:21:11;;;;;;;21.55;11.60;;;;;;;;;;4913591;29;20279;-82
2023/12/01 13:23:38;;;;;;;18.43;11.60;;;;;;;;;;4927643;29;20024;-82
2023/12/01 13:26:03;;;;;;;20.35;10.73;;;;;;;;;;4910366;29;20267;-82
2023/12/01 13:28:29;;;;;;;18.30;11.07;;;;;;;;;;4916987;29;20044;-82
2023/12/01 13:30:54;;;;;;;18.67;10.68;;;;;;;;;;4917335;29;20055;-82
2023/12/01 13:33:20;;;;;;;21.37;11.53;;;;;;;;;;4916989;29;20031;-82
2023/12/01 13:35:45;;;;;;;19.67;9.40;;;;;;;;;;4905915;29;20275;-82
2023/12/01 13:38:11;;;;;;;21.83;11.23;;;;;;;;;;4914379;29;20028;-82
2023/12/01 13:40:38;;;;;;;16.55;10.13;;;;;;;;;;4915303;29;20278;-82
2023/12/01 13:43:04;;;;;;;18.60;10.05;;;;;;;;;;4903172;29;20025;-82
2023/12/01 13:45:29;;;;;;;19.73;10.90;;;;;;;;;;4911183;29;20034;-82
2023/12/01 13:47:55;;;;;;;19.70;10.88;;;;;;;;;;4907898;29;20520;-82
2023/12/01 13:50:20;;;;;;;17.67;10.18;;;;;;;;;;4912992;29;20100;-82
2023/12/01 13:52:46;;;;;;;17.25;10.13;;;;;;;;;;4907539;29;20017;-82
2023/12/01 13:55:12;;;;;;;18.58;10.38;;;;;;;;;;4922932;29;20032;-82
2023/12/01 13:57:39;;;;;;;17.88;10.50;;;;;;;;;;4903267;29;20024;-82
2023/12/01 14:00:06;;;;;;;16.30;9.57;;;;;;;;;;4909284;29;20032;-82
2023/12/01 14:02:31;;;;;;;18.50;9.68;;;;;;;;;;4909338;29;20035;-82
2023/12/01 14:04:56;;;;;;;20.98;10.05;;;;;;;;;;4930965;29;20392;-82
2023/12/01 14:07:22;;;;;;;15.33;8.50;;;;;;;;;;4909415;29;20028;-81
2023/12/01 14:09:47;;;;;;;21.23;9.27;;;;;;;;;;4905518;29;20072;-82
2023/12/01 14:12:13;;;;;;;17.13;9.80;;;;;;;;;;4928334;29;20274;-82